Island of Crete, Greece
Current Conditions -  °F | °C
As of 5:50 PM on Friday 28 Nov 2014 (Local Time) from LGIR Reporting Station
Scattered Clouds Scattered Clouds  
Wind Chill: 66°   Ceiling: Unl
Heat Index: 66°   Visibility: 6mi
Dew Point: 57°   Wind: 8mph
Humidity: 73%   Direction: 80°E
Pressure: 30.18"   Gusts: NA
Location:  35.33°N, 25.18°E
Report Text: LGIR 281450Z 08007KT 9999 SCT025 SCT080 19/14 Q1022 NOSIG
Loading
Personal Weather Stations






























Interactive Weather Map New forecast layout! Learn more

10-Day Weather Forecast

Advertisements
Track Severe Weather on mobile